^^
Caerphilly Weather Station Historical Data
 
Daily Summary for December 16, 2018 Units:  Metric    English   Both
Daily Weekly Monthly Yearly Custom
  Current: High: Low: Average:
Temperature: 6.5 °C 7.7 °C 3.0 °C 6.1 °C
Dew Point: 5.0 °C 6.7 °C 2.2 °C 5.2 °C
Humidity: 90% 97% 88% 94%
Wind Speed: 0.0km/h 4.8km/h 0.0km/h 0km/h
Wind Gust: 1.6km/h 32.2km/h - -
WindCalm - - West
Pressure: 1005.9 hPa 1005.9 hPa 1002.0 hPa -
Precipitation: 5.6 mm      
Historical Graphs
 
 
Tabular Data for December 16, 2018
Time Temperature Dew Point Pressure Wind Wind Speed Wind Gust Humidity Rainfall Rate (Hourly) solar
00:00 7.0 °C 5.3 °C 1002.4 hPa Calm   32.2 km/h 89% 0.2 mm 0.00 W/m2
00:05 6.9 °C 5.4 °C 1002.4 hPa Calm     90% 0.0 mm 0.00 W/m2
00:10 6.9 °C 5.4 °C 1002.3 hPa Calm     90% 0.0 mm 0.00 W/m2
00:15 6.9 °C 5.4 °C 1002.4 hPa Calm     90% 0.0 mm 0.00 W/m2
00:20 6.9 °C 5.4 °C 1002.5 hPa Calm     90% 0.0 mm 0.00 W/m2
00:25 6.9 °C 5.4 °C 1002.6 hPa Calm     90% 0.0 mm 0.00 W/m2
00:30 6.9 °C 5.4 °C 1002.8 hPa Calm     90% 0.0 mm 0.00 W/m2
00:35 6.8 °C 5.5 °C 1002.8 hPa Calm     91% 0.2 mm 0.00 W/m2
00:40 6.8 °C 5.4 °C 1002.9 hPa Calm     91% 0.0 mm 0.00 W/m2
00:45 6.8 °C 5.4 °C 1003.1 hPa Calm     91% 0.4 mm 0.00 W/m2
00:50 6.8 °C 5.4 °C 1003.0 hPa Calm     91% 0.0 mm 0.00 W/m2
00:55 6.7 °C 5.5 °C 1003.0 hPa Calm     92% 0.0 mm 0.00 W/m2
01:05 6.7 °C 5.5 °C 1002.9 hPa Calm     92% 0.0 mm 0.00 W/m2
01:10 6.8 °C 5.6 °C 1002.9 hPa Calm     92% 0.0 mm 0.00 W/m2
01:15 6.8 °C 5.6 °C 1002.9 hPa Calm     92% 0.0 mm 0.00 W/m2
01:20 6.8 °C 5.6 °C 1003.0 hPa Calm     92% 0.0 mm 0.00 W/m2
01:25 6.8 °C 5.6 °C 1003.0 hPa Calm     92% 0.0 mm 0.00 W/m2
01:30 6.8 °C 5.7 °C 1003.0 hPa Calm     93% 0.0 mm 0.00 W/m2
01:35 6.8 °C 5.8 °C 1003.1 hPa Calm     93% 0.0 mm 0.00 W/m2
01:40 6.9 °C 5.9 °C 1003.1 hPa Calm     93% 0.0 mm 0.00 W/m2
01:45 7.0 °C 5.9 °C 1003.0 hPa Calm     93% 0.0 mm 0.00 W/m2
01:50 7.1 °C 6.0 °C 1003.0 hPa Calm     93% 0.0 mm 0.00 W/m2
01:55 7.2 °C 6.1 °C 1003.1 hPa Calm     93% 0.0 mm 0.00 W/m2
02:00 7.3 °C 6.3 °C 1003.2 hPa Calm     93% 0.0 mm 0.00 W/m2
02:05 7.4 °C 6.4 °C 1003.2 hPa Calm     93% 0.0 mm 0.00 W/m2
02:10 7.4 °C 6.4 °C 1003.2 hPa Calm   1.6 km/h 93% 0.0 mm 0.00 W/m2
02:20 7.6 °C 6.4 °C 1003.3 hPa Calm     92% 0.0 mm 0.00 W/m2
02:25 7.7 °C 6.3 °C 1003.4 hPa Calm   6.4 km/h 91% 0.0 mm 0.00 W/m2
02:35 7.7 °C 6.2 °C 1003.5 hPa Calm     90% 0.0 mm 0.00 W/m2
02:40 7.6 °C 6.1 °C 1003.4 hPa Calm     90% 0.0 mm 0.00 W/m2
02:45 7.5 °C 5.9 °C 1003.5 hPa Calm     90% 0.0 mm 0.00 W/m2
02:50 7.4 °C 5.9 °C 1003.6 hPa Calm     90% 0.0 mm 0.00 W/m2
02:55 7.4 °C 5.8 °C 1003.7 hPa Calm     90% 0.0 mm 0.00 W/m2
03:00 7.3 °C 5.7 °C 1003.7 hPa Calm     89% 0.0 mm 0.00 W/m2
03:05 7.3 °C 5.7 °C 1003.6 hPa Calm     89% 0.0 mm 0.00 W/m2
03:10 7.3 °C 5.4 °C 1003.6 hPa Calm     88% 0.0 mm 0.00 W/m2
03:15 7.3 °C 5.4 °C 1003.6 hPa Calm     88% 0.0 mm 0.00 W/m2
03:20 7.2 °C 5.4 °C 1003.6 hPa Calm     88% 0.0 mm 0.00 W/m2
03:25 7.2 °C 5.4 °C 1003.6 hPa Calm     88% 0.0 mm 0.00 W/m2
03:30 7.2 °C 5.3 °C 1003.6 hPa Calm     88% 0.0 mm 0.00 W/m2
03:35 7.1 °C 5.2 °C 1003.7 hPa Calm     88% 0.0 mm 0.00 W/m2
03:40 6.9 °C 5.2 °C 1003.7 hPa Calm     89% 0.0 mm 0.00 W/m2
03:45 6.8 °C 5.1 °C 1003.7 hPa Calm     89% 0.0 mm 0.00 W/m2
03:50 6.6 °C 4.9 °C 1003.7 hPa Calm     89% 0.0 mm 0.00 W/m2
03:55 6.5 °C 4.8 °C 1003.8 hPa Calm     89% 0.0 mm 0.00 W/m2
04:00 6.2 °C 4.7 °C 1003.8 hPa Calm     90% 0.0 mm 0.00 W/m2
04:05 6.2 °C 4.7 °C 1003.8 hPa Calm     90% 0.0 mm 0.00 W/m2
04:10 5.9 °C 4.3 °C 1003.9 hPa Calm     90% 0.0 mm 0.00 W/m2
04:15 5.8 °C 4.6 °C 1003.9 hPa Calm     92% 0.0 mm 0.00 W/m2
04:20 5.9 °C 4.7 °C 1004.0 hPa Calm     92% 0.0 mm 0.00 W/m2
04:25 5.8 °C 4.4 °C 1004.0 hPa Calm     91% 0.0 mm 0.00 W/m2
04:30 5.5 °C 4.2 °C 1004.0 hPa Calm     91% 0.0 mm 0.00 W/m2
04:40 5.4 °C 4.2 °C 1004.0 hPa Calm     92% 0.0 mm 0.00 W/m2
04:45 5.3 °C 4.1 °C 1004.1 hPa Calm     92% 0.0 mm 0.00 W/m2
04:50 5.1 °C 3.9 °C 1004.2 hPa Calm     92% 0.0 mm 0.00 W/m2
04:55 4.9 °C 3.7 °C 1004.2 hPa Calm     92% 0.0 mm 0.00 W/m2
05:05 4.7 °C 3.7 °C 1004.1 hPa Calm     93% 0.0 mm 0.00 W/m2
05:10 4.7 °C 3.6 °C 1004.1 hPa Calm     93% 0.0 mm 0.00 W/m2
05:15 4.5 °C 3.5 °C 1004.3 hPa Calm     93% 0.0 mm 0.00 W/m2
05:20 4.4 °C 3.4 °C 1004.3 hPa Calm     93% 0.0 mm 0.00 W/m2
05:25 4.4 °C 3.5 °C 1004.4 hPa Calm     94% 0.0 mm 0.00 W/m2
05:35 5.7 °C 5.0 °C 1004.4 hPa Calm   4.8 km/h 95% 0.0 mm 0.00 W/m2
05:40 6.4 °C 5.5 °C 1004.4 hPa Calm   4.8 km/h 94% 0.0 mm 0.00 W/m2
05:45 6.4 °C 5.4 °C 1004.5 hPa Calm     93% 0.0 mm 0.00 W/m2
05:50 6.4 °C 5.4 °C 1004.5 hPa Calm     93% 0.0 mm 0.00 W/m2
05:55 6.3 °C 5.1 °C 1004.7 hPa Calm   4.8 km/h 92% 0.2 mm 0.00 W/m2
06:00 6.3 °C 5.3 °C 1004.6 hPa Calm     93% 0.4 mm 0.00 W/m2
06:05 6.3 °C 5.3 °C 1004.4 hPa Calm     93% 0.0 mm 0.00 W/m2
06:10 6.3 °C 5.1 °C 1004.5 hPa Calm     92% 0.0 mm 0.00 W/m2
06:15 6.2 °C 5.2 °C 1004.5 hPa Calm     93% 0.0 mm 0.00 W/m2
06:25 6.2 °C 5.1 °C 1004.5 hPa Calm     93% 0.0 mm 0.00 W/m2
06:35 6.0 °C 4.8 °C 1004.6 hPa Calm     92% 0.0 mm 0.00 W/m2
06:40 5.9 °C 4.9 °C 1004.5 hPa Calm     93% 0.0 mm 0.00 W/m2
06:45 5.8 °C 4.8 °C 1004.6 hPa Calm     93% 0.0 mm 0.00 W/m2
06:55 5.4 °C 4.4 °C 1004.6 hPa Calm     93% 0.0 mm 0.00 W/m2
07:00 5.4 °C 4.3 °C 1004.6 hPa Calm     93% 0.0 mm 0.00 W/m2
07:05 5.2 °C 4.2 °C 1004.6 hPa Calm     93% 0.0 mm 0.00 W/m2
07:10 4.9 °C 3.9 °C 1004.7 hPa Calm     93% 0.0 mm 0.00 W/m2
07:15 4.7 °C 3.6 °C 1004.5 hPa Calm     93% 0.0 mm 0.00 W/m2
07:20 4.5 °C 3.4 °C 1004.6 hPa Calm     93% 0.0 mm 0.00 W/m2
07:25 4.3 °C 3.4 °C 1004.5 hPa Calm     94% 0.0 mm 0.00 W/m2
07:35 4.1 °C 3.2 °C 1004.4 hPa Calm     94% 0.0 mm 0.00 W/m2
07:45 4.0 °C 3.1 °C 1004.4 hPa Calm     94% 0.0 mm 0.00 W/m2
07:50 3.9 °C 3.0 °C 1004.5 hPa Calm     94% 0.0 mm 0.00 W/m2
07:55 3.9 °C 3.2 °C 1004.6 hPa Calm     95% 0.0 mm 0.00 W/m2
08:00 3.7 °C 2.8 °C 1004.7 hPa Calm     94% 0.0 mm 0.00 W/m2
08:05 3.5 °C 2.6 °C 1004.6 hPa Calm     94% 0.0 mm 0.00 W/m2
08:15 3.1 °C 2.2 °C 1004.8 hPa Calm     94% 0.0 mm 5.50 W/m2
08:20 3.0 °C 2.3 °C 1004.8 hPa Calm     95% 0.0 mm 7.70 W/m2
08:30 3.1 °C 2.3 °C 1004.7 hPa Calm     95% 0.0 mm 12.10 W/m2
08:35 3.1 °C 2.3 °C 1004.7 hPa Calm     95% 0.0 mm 12.10 W/m2
08:45 3.4 °C 2.7 °C 1004.8 hPa Calm     95% 0.0 mm 17.60 W/m2
08:50 3.3 °C 2.6 °C 1004.9 hPa Calm     95% 0.0 mm 19.80 W/m2
08:55 3.2 °C 2.4 °C 1004.9 hPa Calm   3.2 km/h 95% 0.0 mm 20.90 W/m2
09:00 3.1 °C 2.3 °C 1004.8 hPa Calm   3.2 km/h 95% 0.0 mm 23.10 W/m2
09:05 3.2 °C 2.6 °C 1004.9 hPa Calm     96% 0.0 mm 27.50 W/m2
09:15 3.8 °C 3.3 °C 1005.0 hPa Calm   1.6 km/h 96% 0.0 mm 36.30 W/m2
09:20 3.7 °C 3.2 °C 1005.0 hPa Calm     96% 0.0 mm 40.70 W/m2
09:25 3.8 °C 3.2 °C 1005.1 hPa Calm     96% 0.0 mm 42.90 W/m2
09:30 4.1 °C 3.5 °C 1005.0 hPa Calm     96% 0.0 mm 46.20 W/m2
09:40 4.5 °C 3.9 °C 1004.9 hPa Calm     96% 0.0 mm 51.70 W/m2
09:50 4.5 °C 3.9 °C 1004.8 hPa Calm   1.6 km/h 96% 0.0 mm 53.90 W/m2
09:55 4.5 °C 3.9 °C 1004.9 hPa Calm   3.2 km/h 96% 0.0 mm 58.30 W/m2
10:05 4.5 °C 3.9 °C 1004.9 hPa Calm     96% 0.0 mm 61.60 W/m2
10:15 4.6 °C 4.0 °C 1004.9 hPa Calm   1.6 km/h 96% 0.0 mm 61.60 W/m2
10:20 4.6 °C 4.0 °C 1004.9 hPa Calm   1.6 km/h 96% 0.0 mm 63.80 W/m2
10:30 4.7 °C 4.1 °C 1004.8 hPa Calm   1.6 km/h 96% 0.0 mm 58.30 W/m2
10:35 4.8 °C 4.2 °C 1004.7 hPa Calm   1.6 km/h 96% 0.0 mm 61.60 W/m2
10:40 4.8 °C 4.2 °C 1004.7 hPa Calm     96% 0.0 mm 66.00 W/m2
10:45 4.8 °C 4.3 °C 1004.8 hPa Calm     96% 0.0 mm 66.00 W/m2
10:55 5.1 °C 4.6 °C 1004.8 hPa Calm     97% 0.0 mm 68.20 W/m2
11:00 5.2 °C 4.7 °C 1004.7 hPa Calm     97% 0.0 mm 66.00 W/m2
11:05 5.3 °C 4.8 °C 1004.5 hPa Calm     97% 0.0 mm 66.00 W/m2
11:15 5.4 °C 4.9 °C 1004.4 hPa Calm     97% 0.0 mm 59.40 W/m2
11:20 5.4 °C 5.0 °C 1004.3 hPa Calm     97% 0.0 mm 53.90 W/m2
11:30 5.6 °C 4.9 °C 1004.1 hPa Calm     96% 0.0 mm 61.60 W/m2
11:35 5.6 °C 4.9 °C 1004.1 hPa Calm     96% 0.0 mm 68.20 W/m2
11:45 5.6 °C 4.9 °C 1004.0 hPa Calm     96% 0.0 mm 83.60 W/m2
11:55 5.6 °C 4.9 °C 1003.8 hPa Calm     96% 0.0 mm 73.70 W/m2
12:00 5.6 °C 5.0 °C 1003.7 hPa Calm     96% 0.0 mm 66.00 W/m2
12:05 5.7 °C 5.1 °C 1003.6 hPa Calm     96% 0.0 mm 58.30 W/m2
12:15 5.7 °C 5.3 °C 1003.4 hPa Calm     97% 0.0 mm 48.40 W/m2
12:20 5.7 °C 5.1 °C 1003.4 hPa Calm     96% 0.0 mm 53.90 W/m2
12:25 5.8 °C 5.2 °C 1003.4 hPa Calm     96% 0.0 mm 61.60 W/m2
12:30 5.8 °C 5.2 °C 1003.3 hPa Calm     96% 0.0 mm 63.80 W/m2
12:35 5.9 °C 5.3 °C 1003.3 hPa Calm     96% 0.0 mm 63.80 W/m2
12:45 6.0 °C 5.4 °C 1003.2 hPa Calm     96% 0.0 mm 61.60 W/m2
12:50 6.0 °C 5.4 °C 1003.1 hPa Calm     96% 0.0 mm 48.40 W/m2
12:55 6.1 °C 5.4 °C 1003.1 hPa Calm     96% 0.0 mm 38.50 W/m2
13:00 6.1 °C 5.4 °C 1003.0 hPa Calm     96% 0.0 mm 38.50 W/m2
13:05 6.1 °C 5.6 °C 1003.0 hPa Calm     96% 0.0 mm 36.30 W/m2
13:15 6.2 °C 5.6 °C 1003.0 hPa Calm     96% 0.0 mm 27.50 W/m2
13:20 6.2 °C 5.7 °C 1002.8 hPa Calm   1.6 km/h 96% 0.0 mm 23.10 W/m2
13:30 6.5 °C 5.9 °C 1002.6 hPa Calm     96% 0.0 mm 17.60 W/m2
13:40 6.8 °C 6.2 °C 1002.4 hPa Calm     96% 0.0 mm 23.10 W/m2
13:45 6.9 °C 6.3 °C 1002.4 hPa Calm     96% 0.0 mm 23.10 W/m2
13:55 7.1 °C 6.5 °C 1002.3 hPa Calm   3.2 km/h 96% 0.2 mm 19.80 W/m2
14:05 7.2 °C 6.6 °C 1002.4 hPa Calm     96% 0.0 mm 7.70 W/m2
14:10 7.2 °C 6.7 °C 1002.4 hPa Calm     96% 0.2 mm 5.50 W/m2
14:15 7.2 °C 6.5 °C 1002.4 hPa Calm     95% 0.2 mm 5.50 W/m2
14:20 7.2 °C 6.4 °C 1002.4 hPa Calm     95% 0.2 mm 5.50 W/m2
14:25 7.0 °C 6.2 °C 1002.4 hPa Calm     95% 0.4 mm 5.50 W/m2
14:30 6.9 °C 6.1 °C 1002.4 hPa Calm     94% 0.2 mm 5.50 W/m2
14:35 6.9 °C 6.1 °C 1002.4 hPa Calm     94% 0.2 mm 5.50 W/m2
14:45 6.9 °C 6.1 °C 1002.4 hPa Calm   1.6 km/h 94% 0.2 mm 7.70 W/m2
14:50 6.9 °C 5.8 °C 1002.4 hPa Calm     93% 0.2 mm 7.70 W/m2
14:55 6.9 °C 6.0 °C 1002.3 hPa Calm     94% 0.2 mm 9.90 W/m2
15:00 6.9 °C 6.0 °C 1002.3 hPa Calm     94% 0.0 mm 9.90 W/m2
15:05 6.9 °C 6.1 °C 1002.4 hPa Calm     94% 0.2 mm 0.00 W/m2
15:15 6.9 °C 6.0 °C 1002.2 hPa Calm   1.6 km/h 94% 0.2 mm 7.70 W/m2
15:20 6.9 °C 6.0 °C 1002.2 hPa Calm     94% 0.0 mm 5.50 W/m2
15:30 6.8 °C 6.1 °C 1002.2 hPa Calm     95% 0.0 mm 0.00 W/m2
15:35 6.8 °C 5.9 °C 1002.0 hPa Calm     94% 0.0 mm 0.00 W/m2
15:45 6.8 °C 5.9 °C 1002.0 hPa Calm     94% 0.0 mm 0.00 W/m2
15:50 6.8 °C 5.9 °C 1002.1 hPa Calm     94% 0.0 mm 0.00 W/m2
15:55 6.8 °C 5.9 °C 1002.1 hPa Calm     94% 0.2 mm 0.00 W/m2
16:05 6.8 °C 6.1 °C 1002.1 hPa Calm     95% 0.0 mm 0.00 W/m2
16:10 6.8 °C 6.0 °C 1002.2 hPa Calm     95% 0.2 mm 0.00 W/m2
16:15 6.8 °C 6.1 °C 1002.1 hPa Calm     95% 0.0 mm 0.00 W/m2
16:20 6.8 °C 6.1 °C 1002.2 hPa Calm     95% 0.2 mm 0.00 W/m2
16:30 6.8 °C 6.1 °C 1002.1 hPa Calm     95% 0.0 mm 0.00 W/m2
16:35 6.8 °C 6.1 °C 1002.0 hPa Calm     95% 0.0 mm 0.00 W/m2
16:40 6.8 °C 6.1 °C 1002.1 hPa Calm     95% 0.0 mm 0.00 W/m2
16:45 6.8 °C 6.1 °C 1002.1 hPa Calm     95% 0.0 mm 0.00 W/m2
16:55 6.7 °C 5.9 °C 1002.2 hPa Calm     95% 0.0 mm 0.00 W/m2
17:00 6.7 °C 5.9 °C 1002.2 hPa Calm     95% 0.0 mm 0.00 W/m2
17:10 6.7 °C 5.9 °C 1002.4 hPa Calm     95% 0.0 mm 0.00 W/m2
17:15 6.7 °C 5.9 °C 1002.4 hPa Calm   1.6 km/h 95% 0.0 mm 0.00 W/m2
17:20 6.7 °C 6.0 °C 1002.5 hPa Calm   1.6 km/h 95% 0.0 mm 0.00 W/m2
17:30 6.8 °C 6.2 °C 1002.5 hPa Calm     96% 0.0 mm 0.00 W/m2
17:35 6.8 °C 6.2 °C 1002.6 hPa Calm     96% 0.0 mm 0.00 W/m2
17:40 6.8 °C 6.2 °C 1002.7 hPa Calm     96% 0.0 mm 0.00 W/m2
17:45 6.8 °C 6.2 °C 1002.7 hPa Calm     96% 0.0 mm 0.00 W/m2
17:50 6.8 °C 6.2 °C 1002.7 hPa Calm     96% 0.0 mm 0.00 W/m2
17:55 6.8 °C 6.2 °C 1002.9 hPa Calm     96% 0.0 mm 0.00 W/m2
18:05 6.8 °C 6.2 °C 1002.9 hPa Calm     96% 0.0 mm 0.00 W/m2
18:10 6.8 °C 6.2 °C 1002.9 hPa Calm     96% 0.0 mm 0.00 W/m2
18:15 6.8 °C 6.2 °C 1003.0 hPa Calm     96% 0.0 mm 0.00 W/m2
18:20 6.8 °C 6.2 °C 1003.1 hPa Calm     96% 0.0 mm 0.00 W/m2
18:25 6.8 °C 6.2 °C 1003.2 hPa Calm     96% 0.0 mm 0.00 W/m2
18:30 6.8 °C 6.2 °C 1003.2 hPa Calm     96% 0.0 mm 0.00 W/m2
18:35 6.7 °C 6.2 °C 1003.3 hPa Calm     96% 0.0 mm 0.00 W/m2
18:40 6.7 °C 6.1 °C 1003.3 hPa Calm     96% 0.0 mm 0.00 W/m2
18:45 6.7 °C 6.1 °C 1003.4 hPa Calm     96% 0.0 mm 0.00 W/m2
18:55 6.7 °C 6.1 °C 1003.5 hPa Calm     96% 0.0 mm 0.00 W/m2
19:05 6.7 °C 6.1 °C 1003.5 hPa Calm     96% 0.0 mm 0.00 W/m2
19:10 6.7 °C 6.1 °C 1003.6 hPa Calm     96% 0.0 mm 0.00 W/m2
19:15 6.8 °C 6.2 °C 1003.7 hPa Calm     96% 0.0 mm 0.00 W/m2
19:25 6.8 °C 6.2 °C 1003.8 hPa Calm     96% 0.0 mm 0.00 W/m2
19:35 6.8 °C 6.2 °C 1004.1 hPa Calm     96% 0.2 mm 0.00 W/m2
19:45 6.9 °C 6.3 °C 1004.3 hPa Calm     96% 0.0 mm 0.00 W/m2
19:50 6.9 °C 6.3 °C 1004.4 hPa Calm   1.6 km/h 96% 0.0 mm 0.00 W/m2
19:55 7.1 °C 6.3 °C 1004.6 hPa West 4.8 km/h 19.3 km/h 95% 0.0 mm 0.00 W/m2
20:05 7.1 °C 6.1 °C 1004.9 hPa Calm   1.6 km/h 93% 0.0 mm 0.00 W/m2
20:10 7.2 °C 5.9 °C 1004.9 hPa Calm   1.6 km/h 92% 0.0 mm 0.00 W/m2
20:20 7.1 °C 5.8 °C 1005.1 hPa Calm   22.5 km/h 91% 0.0 mm 0.00 W/m2
20:25 7.1 °C 5.7 °C 1005.2 hPa Calm     91% 0.0 mm 0.00 W/m2
20:30 7.0 °C 5.6 °C 1005.3 hPa Calm     91% 0.0 mm 0.00 W/m2
20:35 6.9 °C 5.6 °C 1005.5 hPa Calm     91% 0.0 mm 0.00 W/m2
20:40 6.9 °C 5.4 °C 1005.5 hPa Calm   1.6 km/h 90% 0.0 mm 0.00 W/m2
20:45 6.8 °C 5.3 °C 1005.6 hPa Calm   1.6 km/h 90% 0.0 mm 0.00 W/m2
20:50 6.7 °C 5.2 °C 1005.7 hPa Calm     90% 0.0 mm 0.00 W/m2
20:55 6.6 °C 5.2 °C 1005.8 hPa Calm   1.6 km/h 91% 0.0 mm 0.00 W/m2
21:00 6.5 °C 5.0 °C 1005.9 hPa Calm   1.6 km/h 90% 0.0 mm 0.00 W/m2
Caerphilly,Wales
Compliments of Weather Underground - 4 mb